Time;durP1;ratioP1;P1;durP2;ratioP2;P2;SDS_P1;SDS_P2;PMS_P1;PMS_P2;Temp;Humidity;BMP_temperature;BMP_pressure;BME280_temperature;BME280_humidity;BME280_pressure;Samples;Min_cycle;Max_cycle;Signal;HPM_P1;HPM_P2
2023/12/11 00:02:41;;;;;;;;;;;10.90;62.40;;;9.58;63.93;99613.59;12247630;19;19923;-85
2023/12/11 00:06:42;;;;;;;;;;;10.90;62.50;;;9.62;63.94;99603.81;12247031;19;20261;-86
2023/12/11 00:10:44;;;;;;;;;;;10.90;62.60;;;9.53;63.86;99581.81;12244244;19;19913;-85
2023/12/11 00:14:46;;;;;;;;;;;11.00;62.60;;;9.54;64.02;99580.88;12246378;19;20289;-86
2023/12/11 00:18:48;;;;;;;;;;;10.90;62.50;;;9.59;63.95;99576.19;12247793;19;20376;-85
2023/12/11 00:22:50;;;;;;;;;;;11.00;62.60;;;9.65;63.98;99574.94;12247202;19;19927;-86
2023/12/11 00:26:52;;;;;;;;;;;11.00;62.60;;;9.66;63.93;99576.56;12247609;19;19911;-86
2023/12/11 00:30:53;;;;;;;;;;;10.90;62.50;;;9.59;63.80;99547.50;12245663;19;19915;-86
2023/12/11 00:34:55;;;;;;;;;;;10.90;62.50;;;9.55;63.74;99533.03;12247236;19;20321;-86
2023/12/11 00:38:56;;;;;;;;;;;10.90;62.70;;;9.53;63.91;99521.88;12246761;19;19911;-86
2023/12/11 00:42:58;;;;;;;;;;;10.90;62.60;;;9.52;63.98;99512.38;12243512;19;19948;-86
2023/12/11 00:47:02;;;;;;;;;;;10.90;62.80;;;9.54;63.90;99513.13;12242851;19;19927;-86
2023/12/11 00:51:04;;;;;;;;;;;10.90;62.90;;;9.53;63.79;99504.47;12240541;19;19919;-86
2023/12/11 00:55:06;;;;;;;;;;;10.90;63.00;;;9.48;64.04;99495.31;12242483;19;19971;-86
2023/12/11 00:59:07;;;;;;;;;;;10.80;63.00;;;9.51;63.94;99485.50;12249522;19;19921;-86
2023/12/11 01:03:09;;;;;;;;;;;10.80;62.90;;;9.46;63.84;99478.97;12255930;19;20418;-85
2023/12/11 01:07:10;;;;;;;;;;;10.80;63.00;;;9.39;63.82;99446.44;12255885;19;19918;-86
2023/12/11 01:11:12;;;;;;;;;;;10.80;63.00;;;9.26;63.95;99421.28;12252720;19;19923;-86
2023/12/11 01:15:14;;;;;;;;;;;10.80;63.00;;;9.25;63.97;99423.97;12254892;19;19923;-86
2023/12/11 01:19:15;;;;;;;;;;;10.70;63.10;;;9.42;64.09;99439.25;12253772;19;19944;-86
2023/12/11 01:23:17;;;;;;;;;;;10.70;63.20;;;9.33;63.94;99410.41;12255469;19;19927;-85
2023/12/11 01:27:19;;;;;;;;;;;10.70;63.20;;;9.23;64.08;99389.38;12255368;19;19907;-86
2023/12/11 01:31:21;;;;;;;;;;;10.70;63.20;;;9.33;63.98;99397.41;12251669;19;19919;-85
2023/12/11 01:35:22;;;;;;;;;;;10.70;63.20;;;9.26;64.07;99378.75;12255886;19;19915;-86
2023/12/11 01:39:24;;;;;;;;;;;10.70;63.30;;;9.27;63.83;99378.66;12253722;19;19911;-86
2023/12/11 01:43:25;;;;;;;;;;;10.70;63.40;;;9.27;64.10;99370.00;12255985;19;19933;-86
2023/12/11 01:47:27;;;;;;;;;;;10.70;63.50;;;9.30;64.06;99370.63;12253931;19;19914;-86
2023/12/11 01:51:28;;;;;;;;;;;10.70;63.40;;;9.22;64.04;99352.09;12251365;19;19934;-85
2023/12/11 01:55:31;;;;;;;;;;;10.60;63.40;;;9.30;64.12;99365.41;12254764;19;20270;-86
2023/12/11 01:59:34;;;;;;;;;;;10.70;63.60;;;9.37;64.07;99367.56;12252426;19;19918;-85
2023/12/11 02:03:37;;;;;;;;;;;10.70;63.70;;;9.33;63.95;99360.94;12255600;19;19925;-85
2023/12/11 02:07:38;;;;;;;;;;;10.70;64.00;;;9.11;63.87;99315.59;12253109;19;19928;-85
2023/12/11 02:11:40;;;;;;;;;;;10.70;63.70;;;9.30;63.85;99341.97;12251246;19;19925;-85
2023/12/11 02:15:46;;;;;;;;;;;10.70;65.30;;;9.20;64.12;99304.50;12252541;19;19911;-84
2023/12/11 02:19:48;;;;;;;;;;;10.60;64.30;;;9.19;63.99;99308.03;12251644;19;19985;-85
2023/12/11 02:23:52;;;;;;;;;;;10.70;64.10;;;9.34;64.21;99320.91;12253345;19;19940;-85
2023/12/11 02:27:54;;;;;;;;;;;10.70;64.50;;;9.30;64.41;99299.44;12253602;19;19919;-85
2023/12/11 02:31:55;;;;;;;;;;;10.70;64.40;;;9.29;64.20;99287.38;12249009;19;19915;-85
2023/12/11 02:35:57;;;;;;;;;;;10.70;65.10;;;9.40;64.18;99282.22;12247742;19;20381;-85
2023/12/11 02:39:58;;;;;;;;;;;10.70;64.50;;;9.41;64.23;99286.47;12252124;19;19935;-86
2023/12/11 02:44:00;;;;;;;;;;;10.70;64.50;;;9.40;64.05;99270.97;12251056;19;19919;-85
2023/12/11 02:48:02;;;;;;;;;;;10.80;64.50;;;9.26;64.25;99245.91;12250720;19;20252;-85
2023/12/11 02:52:04;;;;;;;;;;;10.80;64.40;;;9.38;64.25;99252.00;12248922;19;19919;-85
2023/12/11 02:56:06;;;;;;;;;;;10.80;64.50;;;9.24;64.18;99230.41;12252559;19;19911;-85
2023/12/11 03:00:08;;;;;;;;;;;10.80;64.60;;;9.54;64.28;99262.94;12248912;19;19915;-85
2023/12/11 03:04:10;;;;;;;;;;;10.80;64.90;;;9.26;64.22;99212.91;12251789;19;19930;-85
2023/12/11 03:08:11;;;;;;;;;;;10.90;64.80;;;9.56;64.24;99252.41;12248207;19;19919;-85
2023/12/11 03:12:17;;;;;;;;;;;10.90;65.00;;;9.60;64.28;99254.66;12247788;19;19982;-86
2023/12/11 03:16:19;;;;;;;;;;;10.90;65.00;;;9.48;64.18;99245.19;12249497;19;19911;-85
2023/12/11 03:20:21;;;;;;;;;;;10.90;65.10;;;9.67;64.38;99253.28;12243178;19;19937;-85
2023/12/11 03:24:22;;;;;;;;;;;11.00;65.00;;;9.50;64.14;99238.91;12245739;19;19919;-85
2023/12/11 03:28:25;;;;;;;;;;;11.00;65.20;;;9.75;64.29;99282.19;12244918;19;19934;-85
2023/12/11 03:32:26;;;;;;;;;;;11.10;65.50;;;9.80;64.26;99274.00;12245196;19;19923;-85
2023/12/11 03:36:28;;;;;;;;;;;11.10;65.10;;;9.86;64.41;99288.38;12247615;19;19915;-85
2023/12/11 03:40:30;;;;;;;;;;;11.20;65.20;;;9.80;64.20;99267.97;12245886;19;19911;-85
2023/12/11 03:44:32;;;;;;;;;;;11.20;65.20;;;9.90;64.37;99281.97;12249729;19;19934;-85
2023/12/11 03:48:33;;;;;;;;;;;11.30;65.30;;;9.96;64.28;99295.41;12247512;19;19943;-86
2023/12/11 03:52:35;;;;;;;;;;;11.30;65.00;;;10.00;64.31;99290.78;12248954;19;20242;-85
2023/12/11 03:56:38;;;;;;;;;;;11.30;65.00;;;9.95;64.20;99279.84;12248054;19;20334;-85
2023/12/11 04:00:40;;;;;;;;;;;11.40;65.00;;;10.07;64.25;99288.50;12245360;19;19914;-85
2023/12/11 04:04:42;;;;;;;;;;;11.40;65.00;;;10.13;64.45;99312.38;12248314;19;19922;-85
2023/12/11 04:08:43;;;;;;;;;;;11.50;65.00;;;10.04;64.30;99288.75;12247119;19;19921;-85
2023/12/11 04:12:45;;;;;;;;;;;11.50;64.90;;;10.07;64.47;99297.19;12247439;19;20456;-85
2023/12/11 04:16:47;;;;;;;;;;;11.50;64.80;;;9.89;64.35;99269.91;12246019;19;19915;-85
2023/12/11 04:20:49;;;;;;;;;;;11.50;64.80;;;10.19;64.39;99314.50;12243794;19;20264;-85
2023/12/11 04:24:50;;;;;;;;;;;11.60;64.90;;;10.25;64.37;99317.59;12245887;19;19929;-85
2023/12/11 04:28:53;;;;;;;;;;;11.60;65.00;;;10.17;64.41;99305.94;12244390;19;19913;-85
2023/12/11 04:32:54;;;;;;;;;;;11.60;64.90;;;10.30;64.53;99328.53;12246099;19;19930;-85
2023/12/11 04:36:55;;;;;;;;;;;11.60;64.80;;;10.17;64.45;99308.56;12259342;19;19949;-85
2023/12/11 04:40:57;;;;;;;;;;;11.70;65.00;;;10.26;64.28;99314.03;12256779;19;20314;-85
2023/12/11 04:44:59;;;;;;;;;;;11.70;65.00;;;10.34;64.34;99333.41;12255533;19;19927;-85
2023/12/11 04:49:00;;;;;;;;;;;11.70;65.20;;;10.35;64.30;99331.63;12255655;19;19923;-85
2023/12/11 04:53:02;;;;;;;;;;;11.70;65.00;;;10.45;64.48;99353.47;12257200;19;19918;-85
2023/12/11 04:57:04;;;;;;;;;;;11.80;64.90;;;10.27;64.35;99310.50;12259604;19;19919;-85
2023/12/11 05:01:05;;;;;;;;;;;11.80;64.90;;;10.35;64.37;99323.81;12255723;19;20239;-85
2023/12/11 05:05:07;;;;;;;;;;;11.80;65.20;;;10.41;64.46;99338.97;12259806;19;20057;-85
2023/12/11 05:09:09;;;;;;;;;;;11.90;65.20;;;10.25;64.46;99313.19;12256324;19;19926;-85
2023/12/11 05:13:11;;;;;;;;;;;11.90;65.00;;;10.38;64.36;99328.78;12258144;19;20296;-85
2023/12/11 05:17:13;;;;;;;;;;;11.90;65.00;;;10.60;64.47;99356.66;12258339;19;19921;-86
2023/12/11 05:21:14;;;;;;;;;;;11.90;64.90;;;10.38;64.54;99324.38;12254847;19;19923;-85
2023/12/11 05:25:16;;;;;;;;;;;12.00;64.80;;;10.61;64.40;99359.16;12257922;19;19906;-85
2023/12/11 05:29:18;;;;;;;;;;;12.00;64.80;;;10.65;64.40;99362.38;12253578;19;20423;-85
2023/12/11 05:33:20;;;;;;;;;;;12.00;64.80;;;10.69;64.30;99376.81;12250108;19;19937;-86
2023/12/11 05:37:21;;;;;;;;;;;12.00;64.70;;;10.61;64.40;99359.16;12257030;19;19914;-85
2023/12/11 05:41:23;;;;;;;;;;;12.00;64.70;;;10.56;64.49;99357.88;12251123;19;19911;-85
2023/12/11 05:45:26;;;;;;;;;;;12.10;64.70;;;10.68;64.42;99372.56;12255269;19;19921;-85
2023/12/11 05:49:27;;;;;;;;;;;12.10;64.60;;;10.49;64.31;99343.63;12251140;19;20342;-85
2023/12/11 05:53:29;;;;;;;;;;;12.10;64.50;;;10.62;64.31;99368.66;12253402;19;19918;-85
2023/12/11 05:57:30;;;;;;;;;;;12.10;64.50;;;10.61;64.35;99366.16;12255798;19;19952;-85
2023/12/11 06:01:32;;;;;;;;;;;12.10;64.50;;;10.69;64.38;99381.22;12248565;19;20341;-85
2023/12/11 06:05:34;;;;;;;;;;;12.10;64.30;;;10.70;64.49;99382.91;12253119;19;19927;-85
2023/12/11 06:09:36;;;;;;;;;;;12.10;64.40;;;10.69;64.36;99378.59;12252182;19;20393;-85
2023/12/11 06:13:37;;;;;;;;;;;12.00;64.30;;;10.71;64.59;99382.75;12253697;19;20238;-86
2023/12/11 06:17:39;;;;;;;;;;;12.10;64.40;;;10.53;64.53;99358.06;12254677;19;19974;-85
2023/12/11 06:21:41;;;;;;;;;;;12.10;64.30;;;10.48;64.48;99349.78;12250460;19;19944;-85
2023/12/11 06:25:43;;;;;;;;;;;12.00;64.20;;;10.65;64.36;99380.63;12254274;19;20341;-86
2023/12/11 06:29:45;;;;;;;;;;;12.10;64.20;;;10.63;64.54;99380.75;12248819;19;19922;-86
2023/12/11 06:33:46;;;;;;;;;;;12.10;64.30;;;10.72;64.27;99394.03;12251699;19;19930;-86
2023/12/11 06:37:48;;;;;;;;;;;12.10;64.30;;;10.71;64.41;99392.38;12251140;19;19935;-86
2023/12/11 06:41:50;;;;;;;;;;;12.10;64.20;;;10.76;64.51;99411.13;12243479;19;19988;-86
2023/12/11 06:45:51;;;;;;;;;;;12.10;64.20;;;10.71;64.44;99406.25;12253532;19;19914;-86
2023/12/11 06:49:52;;;;;;;;;;;12.10;64.20;;;10.70;64.48;99390.72;12251377;19;19926;-85
2023/12/11 06:53:58;;;;;;;;;;;12.10;64.20;;;10.79;64.41;99411.72;12251994;19;19939;-85
2023/12/11 06:57:59;;;;;;;;;;;12.20;64.20;;;10.66;64.46;99384.06;12248545;19;19919;-85
2023/12/11 07:02:02;;;;;;;;;;;12.20;64.10;;;10.85;64.44;99416.50;12247898;19;19915;-86
2023/12/11 07:06:04;;;;;;;;;;;12.20;64.10;;;10.88;64.37;99420.63;12250097;19;19923;-87
2023/12/11 07:10:06;;;;;;;;;;;12.20;64.10;;;10.78;64.23;99402.25;12244302;19;19914;-85
2023/12/11 07:14:08;;;;;;;;;;;12.20;64.00;;;10.90;64.35;99426.56;12248588;19;19915;-85
2023/12/11 07:18:13;;;;;;;;;;;12.20;64.10;;;10.92;64.41;99427.28;12247989;19;19922;-84
2023/12/11 07:22:15;;;;;;;;;;;12.20;64.00;;;10.90;64.39;99415.28;12246466;19;20596;-84
2023/12/11 07:26:17;;;;;;;;;;;12.30;64.00;;;10.88;64.47;99420.63;12249996;19;20242;-84
2023/12/11 07:30:18;;;;;;;;;;;12.30;64.00;;;10.85;64.32;99415.63;12245184;19;20345;-84
2023/12/11 07:34:21;;;;;;;;;;;12.30;64.00;;;10.92;64.38;99435.13;12249498;19;19946;-84
2023/12/11 07:38:25;;;;;;;;;;;12.30;64.00;;;10.91;64.43;99433.47;12249247;19;20007;-85
2023/12/11 07:42:26;;;;;;;;;;;12.30;63.90;;;10.82;64.39;99418.50;12244909;19;20413;-84
2023/12/11 07:46:30;;;;;;;;;;;12.30;63.90;;;11.00;64.48;99458.03;12248210;19;20025;-84
2023/12/11 07:50:31;;;;;;;;;;;12.40;64.10;;;10.81;64.43;99416.84;12246199;19;20049;-84
2023/12/11 07:54:33;;;;;;;;;;;12.30;63.80;;;10.89;64.47;99429.31;12247365;19;20381;-85
2023/12/11 07:58:35;;;;;;;;;;;12.40;63.90;;;10.91;64.46;99428.25;12249557;19;20252;-85
2023/12/11 08:02:37;;;;;;;;;;;12.40;63.80;;;11.02;64.38;99449.13;12248201;19;20345;-85
2023/12/11 08:06:42;;;;;;;;;;;12.40;63.90;;;10.98;64.49;99444.25;12247457;19;19911;-86
2023/12/11 08:10:44;;;;;;;;;;;12.40;63.80;;;10.94;64.35;99429.78;12243308;19;19951;-86
2023/12/11 08:14:45;;;;;;;;;;;12.40;63.80;;;10.85;64.28;99418.25;12249569;19;19922;-86
2023/12/11 08:18:48;;;;;;;;;;;12.40;63.70;;;11.00;64.25;99437.97;12246164;19;19933;-86
2023/12/11 08:22:49;;;;;;;;;;;12.40;63.70;;;11.05;64.32;99446.28;12240721;19;19931;-85
2023/12/11 08:26:51;;;;;;;;;;;12.50;63.70;;;11.07;64.30;99441.78;12247430;19;19966;-86
2023/12/11 08:30:54;;;;;;;;;;;12.40;63.60;;;10.90;64.31;99413.50;12246195;19;19939;-84
2023/12/11 08:34:56;;;;;;;;;;;12.40;63.60;;;11.13;64.35;99444.88;12237775;19;19926;-85
2023/12/11 08:38:57;;;;;;;;;;;12.50;63.60;;;11.07;64.39;99431.31;12244690;19;19925;-85
2023/12/11 08:42:59;;;;;;;;;;;12.40;63.50;;;11.11;64.22;99441.53;12243273;19;19939;-84
2023/12/11 08:47:01;;;;;;;;;;;12.50;63.50;;;11.14;64.29;99446.50;12247318;19;19986;-85
2023/12/11 08:51:03;;;;;;;;;;;12.50;63.40;;;11.06;64.27;99424.41;12241167;19;19922;-85
2023/12/11 08:55:05;;;;;;;;;;;12.50;63.40;;;11.14;64.27;99438.69;12246044;19;19919;-84
2023/12/11 08:59:07;;;;;;;;;;;12.50;63.40;;;10.96;64.14;99405.19;12243748;19;19939;-84
2023/12/11 09:03:09;;;;;;;;;;;12.50;63.40;;;11.13;64.30;99418.75;12244211;19;19943;-85
2023/12/11 09:07:11;;;;;;;;;;;12.50;63.40;;;10.98;64.51;99395.44;12244025;19;20352;-86
2023/12/11 09:11:13;;;;;;;;;;;12.50;63.40;;;11.20;64.20;99419.91;12243124;19;19954;-85
2023/12/11 09:15:15;;;;;;;;;;;12.50;63.50;;;11.21;64.42;99421.56;12245251;19;20296;-85
2023/12/11 09:19:16;;;;;;;;;;;12.50;63.40;;;10.90;64.43;99371.72;12246157;19;20368;-84
2023/12/11 09:23:18;;;;;;;;;;;12.50;63.50;;;11.23;64.29;99419.66;12256194;19;19911;-84
2023/12/11 09:27:20;;;;;;;;;;;12.50;63.60;;;11.25;64.41;99415.97;12257913;19;19915;-84
2023/12/11 09:31:24;;;;;;;;;;;12.60;63.80;;;11.33;64.31;99417.16;12254112;19;19915;-85
2023/12/11 09:35:25;;;;;;;;;;;12.60;63.80;;;11.25;64.37;99402.06;12257540;19;19927;-83
2023/12/11 09:39:27;;;;;;;;;;;12.60;63.90;;;11.39;64.54;99403.59;12248158;19;20273;-83
2023/12/11 09:43:28;;;;;;;;;;;12.70;64.00;;;11.34;64.30;99392.66;12251781;19;19923;-83
2023/12/11 09:47:36;;;;;;;;;;;12.70;63.90;;;11.37;64.52;99390.66;12251807;19;20269;-86
2023/12/11 09:51:38;;;;;;;;;;;12.70;63.90;;;11.43;64.45;99400.63;12249641;19;19930;-86
2023/12/11 09:55:40;;;;;;;;;;;12.80;64.00;;;11.43;64.32;99399.78;12246303;19;19943;-86
2023/12/11 09:59:42;;;;;;;;;;;12.80;64.00;;;11.48;64.28;99405.47;12251876;19;19919;-86
2023/12/11 10:03:44;;;;;;;;;;;12.80;64.00;;;11.48;64.38;99408.91;12252246;19;19943;-85
2023/12/11 10:07:46;;;;;;;;;;;12.80;64.00;;;11.38;64.31;99383.63;12253602;19;19919;-85
2023/12/11 10:11:59;;;;;;;;;;;12.80;64.00;;;11.50;64.32;99401.78;12247600;19;19931;-86
2023/12/11 10:16:01;;;;;;;;;;;12.80;63.90;;;11.52;64.56;99410.31;12253064;19;19925;-87
2023/12/11 10:20:14;;;;;;;;;;;12.90;64.10;;;11.49;64.29;99405.34;12247471;19;19935;-87
2023/12/11 10:24:16;;;;;;;;;;;12.90;64.00;;;11.51;64.38;99411.28;12249083;19;19945;-87
2023/12/11 10:28:22;;;;;;;;;;;12.80;64.10;;;11.41;64.39;99402.50;12248955;19;20341;-87
2023/12/11 10:32:28;;;;;;;;;;;12.90;64.10;;;11.51;64.26;99418.31;12247899;19;19911;-86
2023/12/11 10:36:29;;;;;;;;;;;12.80;64.80;;;11.50;64.21;99408.78;12246071;19;19918;-87
2023/12/11 10:40:38;;;;;;;;;;;12.80;64.20;;;11.41;64.24;99399.91;12248764;19;19914;-86
2023/12/11 10:44:40;;;;;;;;;;;12.80;64.30;;;11.52;64.19;99410.31;12250913;19;19927;-86
2023/12/11 10:48:43;;;;;;;;;;;12.80;64.20;;;11.46;64.38;99392.53;12250194;19;19923;-87
2023/12/11 10:52:44;;;;;;;;;;;12.80;64.30;;;11.28;64.27;99344.34;12251159;19;20237;-86
2023/12/11 10:56:47;;;;;;;;;;;12.80;64.30;;;11.52;64.41;99389.41;12249423;19;20253;-87
2023/12/11 11:00:49;;;;;;;;;;;12.80;64.40;;;11.46;64.36;99368.16;12249949;19;19918;-87
2023/12/11 11:04:51;;;;;;;;;;;12.80;64.40;;;11.55;64.20;99372.66;12248614;19;20252;-87
2023/12/11 11:09:04;;;;;;;;;;;12.90;64.40;;;11.60;64.26;99380.13;12246670;19;19926;-88
2023/12/11 11:13:12;;;;;;;;;;;12.90;64.40;;;11.60;64.24;99373.09;12247673;19;19926;-87
2023/12/11 11:17:16;;;;;;;;;;;12.90;64.50;;;11.41;64.25;99339.78;12248988;19;19942;-87
2023/12/11 11:21:18;;;;;;;;;;;12.90;64.50;;;11.31;64.15;99331.03;12245057;19;19975;-87
2023/12/11 11:25:32;;;;;;;;;;;12.90;65.20;;;11.61;64.26;99368.69;12248761;19;20256;-88
2023/12/11 11:29:44;;;;;;;;;;;12.90;64.50;;;11.63;64.48;99367.63;12245869;19;19922;-87
2023/12/11 11:33:50;;;;;;;;;;;12.90;64.60;;;11.62;64.28;99357.31;12249716;19;19911;-86
2023/12/11 11:37:52;;;;;;;;;;;12.90;64.70;;;11.67;64.46;99360.38;12251047;19;20273;-85
2023/12/11 11:41:56;;;;;;;;;;;12.90;64.70;;;11.56;64.27;99342.09;12242255;19;19923;-87
2023/12/11 11:45:58;;;;;;;;;;;13.00;64.70;;;11.58;64.22;99343.63;12238720;19;19926;-86
2023/12/11 11:50:25;;;;;;;;;;;13.00;64.80;;;11.72;64.38;99353.81;12246499;19;19919;-86
2023/12/11 11:54:28;;;;;;;;;;;13.00;64.90;;;11.68;64.42;99341.09;12246086;19;19956;-88
2023/12/11 11:58:31;;;;;;;;;;;13.00;64.90;;;11.56;64.36;99321.19;12246740;19;19907;-86
2023/12/11 12:02:32;;;;;;;;;;;13.00;65.00;;;11.74;64.45;99340.59;12243726;19;19939;-85
2023/12/11 12:06:36;;;;;;;;;;;13.00;65.30;;;11.66;64.42;99324.69;12245592;19;19939;-85
2023/12/11 12:10:37;;;;;;;;;;;13.10;65.30;;;11.71;64.35;99331.22;12242936;19;19915;-85
2023/12/11 12:14:39;;;;;;;;;;;13.10;65.30;;;11.78;64.43;99342.00;12245189;19;19956;-85
2023/12/11 12:18:50;;;;;;;;;;;13.10;65.30;;;11.83;64.44;99334.63;12245469;19;19923;-87
2023/12/11 12:23:07;;;;;;;;;;;13.10;65.30;;;11.83;64.40;99329.38;12247860;19;19930;-88
2023/12/11 12:27:11;;;;;;;;;;;13.10;65.30;;;11.85;64.39;99332.69;12246131;19;19935;-86
2023/12/11 12:31:12;;;;;;;;;;;13.10;65.20;;;11.84;64.35;99331.03;12241525;19;19915;-87
2023/12/11 12:35:19;;;;;;;;;;;13.10;65.20;;;11.78;64.39;99323.72;12242163;19;19926;-86
2023/12/11 12:39:20;;;;;;;;;;;13.20;65.30;;;11.69;64.28;99300.91;12231856;19;19922;-84
2023/12/11 12:43:24;;;;;;;;;;;13.20;65.30;;;11.88;64.41;99327.25;12238128;19;19929;-85
2023/12/11 12:47:25;;;;;;;;;;;13.20;65.20;;;11.89;64.37;99321.06;12241667;19;19918;-84
2023/12/11 12:51:27;;;;;;;;;;;13.20;65.20;;;11.89;64.41;99323.66;12242038;19;19922;-84
2023/12/11 12:55:29;;;;;;;;;;;13.20;65.10;;;11.91;64.43;99318.31;12249309;19;19923;-84
2023/12/11 12:59:32;;;;;;;;;;;13.20;65.10;;;11.87;64.51;99309.88;12254880;19;20325;-84
2023/12/11 13:03:34;;;;;;;;;;;13.20;65.10;;;11.93;64.48;99311.97;12253922;19;20269;-85
2023/12/11 13:07:36;;;;;;;;;;;13.30;65.20;;;11.98;64.38;99306.38;12256930;19;19931;-85
2023/12/11 13:11:47;;;;;;;;;;;13.30;65.20;;;11.99;64.26;99313.28;12253056;19;19954;-86
2023/12/11 13:15:48;;;;;;;;;;;13.30;65.20;;;12.02;64.30;99309.59;12255567;19;19923;-85
2023/12/11 13:19:50;;;;;;;;;;;13.30;65.10;;;12.03;64.32;99317.28;12254000;19;19953;-85
2023/12/11 13:23:51;;;;;;;;;;;13.30;65.10;;;12.05;64.36;99323.22;12255123;19;19910;-85
2023/12/11 13:27:56;;;;;;;;;;;13.30;65.20;;;12.06;64.41;99324.03;12247705;19;20173;-86
2023/12/11 13:31:59;;;;;;;;;;;13.30;65.10;;;12.06;64.40;99326.66;12250430;19;20301;-85
2023/12/11 13:36:01;;;;;;;;;;;13.30;65.10;;;11.86;64.47;99289.94;12255904;19;20259;-85
2023/12/11 13:40:04;;;;;;;;;;;13.30;65.00;;;11.89;64.33;99294.06;12252397;19;19939;-85
2023/12/11 13:44:06;;;;;;;;;;;13.30;65.00;;;11.79;64.28;99275.66;12246237;19;19922;-85
2023/12/11 13:48:08;;;;;;;;;;;13.40;65.10;;;12.06;64.48;99314.41;12246126;19;19930;-85
2023/12/11 13:52:09;;;;;;;;;;;13.40;65.10;;;11.83;64.29;99277.06;12249429;19;19942;-85
2023/12/11 13:56:11;;;;;;;;;;;13.40;65.10;;;12.04;64.31;99310.25;12249959;19;19923;-85
2023/12/11 14:00:15;;;;;;;;;;;13.30;65.00;;;11.98;64.46;99305.53;12249008;19;19921;-85
2023/12/11 14:04:16;;;;;;;;;;;13.30;64.90;;;11.97;64.30;99304.72;12252358;19;19931;-89
2023/12/11 14:08:18;;;;;;;;;;;13.30;64.90;;;11.97;64.33;99293.44;12248938;19;19911;-85
2023/12/11 14:12:19;;;;;;;;;;;13.50;65.10;;;12.01;64.27;99303.50;12247059;19;19982;-85
2023/12/11 14:16:21;;;;;;;;;;;13.30;65.00;;;12.00;64.35;99306.25;12251012;19;20280;-85
2023/12/11 14:20:22;;;;;;;;;;;13.30;64.90;;;12.06;64.38;99308.34;12253213;19;19923;-86
2023/12/11 14:24:25;;;;;;;;;;;13.40;65.00;;;12.10;64.48;99322.84;12252312;19;19927;-85
2023/12/11 14:28:27;;;;;;;;;;;13.30;64.80;;;12.11;64.39;99320.09;12254161;19;19931;-86
2023/12/11 14:32:28;;;;;;;;;;;13.40;64.90;;;12.00;64.23;99314.09;12246731;19;19992;-86
2023/12/11 14:36:30;;;;;;;;;;;13.40;64.90;;;12.05;64.29;99328.47;12253804;19;20325;-86
2023/12/11 14:40:32;;;;;;;;;;;13.40;64.80;;;11.99;64.37;99317.66;12249312;19;19948;-85
2023/12/11 14:44:36;;;;;;;;;;;13.30;64.70;;;11.94;64.36;99310.22;12252703;19;20345;-86
2023/12/11 14:48:38;;;;;;;;;;;13.30;64.70;;;11.95;64.37;99323.16;12250402;19;19935;-86
2023/12/11 14:52:39;;;;;;;;;;;13.30;64.70;;;11.88;64.31;99322.03;12251361;19;20280;-86
2023/12/11 14:56:41;;;;;;;;;;;13.30;64.70;;;11.95;64.40;99333.63;12253155;19;19919;-86
2023/12/11 15:00:42;;;;;;;;;;;13.30;64.70;;;11.91;64.44;99327.00;12247258;19;20459;-86
2023/12/11 15:04:44;;;;;;;;;;;13.30;64.80;;;11.65;64.46;99281.22;12252128;19;19903;-86
2023/12/11 15:08:46;;;;;;;;;;;13.20;64.70;;;11.93;64.31;99319.81;12248681;19;19935;-86
2023/12/11 15:12:47;;;;;;;;;;;13.20;64.70;;;11.89;64.36;99320.22;12250424;19;19915;-86
2023/12/11 15:16:49;;;;;;;;;;;13.30;64.80;;;12.00;64.30;99328.00;12247564;19;20238;-86
2023/12/11 15:20:51;;;;;;;;;;;13.20;64.70;;;11.90;64.34;99314.03;12246281;19;19914;-86
2023/12/11 15:24:53;;;;;;;;;;;13.20;64.70;;;12.01;64.38;99331.44;12249164;19;19915;-85
2023/12/11 15:28:55;;;;;;;;;;;13.30;64.70;;;11.97;64.29;99340.53;12248374;19;19931;-86
2023/12/11 15:32:58;;;;;;;;;;;13.20;64.50;;;11.86;64.24;99316.09;12250405;19;19929;-86
2023/12/11 15:37:00;;;;;;;;;;;13.20;64.50;;;11.95;64.29;99331.00;12247612;19;19933;-86
2023/12/11 15:41:01;;;;;;;;;;;13.20;64.60;;;11.94;64.28;99336.38;12245898;19;19919;-86
2023/12/11 15:45:05;;;;;;;;;;;13.20;64.50;;;11.94;64.19;99325.91;12246471;19;19992;-86
2023/12/11 15:49:06;;;;;;;;;;;13.20;64.70;;;11.68;64.33;99283.56;12245859;19;19923;-85
2023/12/11 15:53:08;;;;;;;;;;;13.20;64.60;;;11.72;64.37;99283.19;12239365;19;19925;-86
2023/12/11 15:57:09;;;;;;;;;;;13.20;64.60;;;11.87;64.33;99309.88;12247374;19;19918;-86
2023/12/11 16:01:10;;;;;;;;;;;13.20;64.60;;;11.87;64.39;99317.72;12245817;19;19938;-86
2023/12/11 16:05:12;;;;;;;;;;;13.30;64.80;;;11.84;64.25;99304.88;12244628;19;19914;-86
2023/12/11 16:09:14;;;;;;;;;;;13.10;64.70;;;11.85;64.32;99317.00;12246258;19;19923;-85
2023/12/11 16:13:15;;;;;;;;;;;13.10;64.70;;;11.86;64.28;99316.09;12245793;19;19943;-86
2023/12/11 16:17:16;;;;;;;;;;;13.10;64.70;;;11.86;64.45;99310.84;12246518;19;20300;-86
2023/12/11 16:21:18;;;;;;;;;;;13.10;64.80;;;11.86;64.23;99313.47;12244686;19;19922;-86
2023/12/11 16:25:20;;;;;;;;;;;13.10;64.80;;;11.70;64.43;99294.75;12243523;19;19918;-85
2023/12/11 16:29:21;;;;;;;;;;;13.10;64.80;;;11.89;64.30;99321.06;12248312;19;19922;-86
2023/12/11 16:33:23;;;;;;;;;;;13.20;64.80;;;11.76;64.20;99307.31;12256973;19;19919;-86
2023/12/11 16:37:25;;;;;;;;;;;13.10;64.80;;;11.80;64.34;99311.34;12257281;19;20304;-86
2023/12/11 16:41:27;;;;;;;;;;;13.10;64.70;;;11.83;64.39;99321.53;12250997;19;19911;-85
2023/12/11 16:45:29;;;;;;;;;;;13.20;64.80;;;11.81;64.19;99325.25;12256123;19;19911;-85
2023/12/11 16:49:31;;;;;;;;;;;13.10;64.80;;;11.82;64.33;99329.50;12251501;19;19936;-85
2023/12/11 16:53:32;;;;;;;;;;;13.10;64.80;;;11.78;64.31;99336.78;12249329;19;19938;-85
2023/12/11 16:57:34;;;;;;;;;;;13.10;64.80;;;11.73;64.33;99326.69;12254544;19;19918;-86
2023/12/11 17:01:36;;;;;;;;;;;13.00;64.80;;;11.75;64.51;99331.81;12252991;19;19915;-85
2023/12/11 17:05:38;;;;;;;;;;;13.10;65.10;;;11.81;64.40;99364.47;12256546;19;19939;-85
2023/12/11 17:09:39;;;;;;;;;;;13.10;65.20;;;11.72;64.35;99356.44;12251983;19;19915;-85
2023/12/11 17:13:41;;;;;;;;;;;13.00;65.10;;;11.55;64.42;99330.81;12255717;19;20307;-85
2023/12/11 17:17:42;;;;;;;;;;;13.10;65.30;;;11.77;64.36;99371.72;12256830;19;19932;-85
2023/12/11 17:21:44;;;;;;;;;;;13.00;65.30;;;11.69;64.51;99366.28;12252136;19;19927;-85
2023/12/11 17:25:45;;;;;;;;;;;13.00;65.40;;;11.65;64.47;99364.91;12255471;19;19990;-85
2023/12/11 17:29:47;;;;;;;;;;;13.00;65.60;;;11.71;64.50;99378.28;12251560;19;19988;-86
2023/12/11 17:33:50;;;;;;;;;;;13.00;65.60;;;11.62;64.48;99379.03;12253683;19;19931;-85
2023/12/11 17:37:52;;;;;;;;;;;13.00;65.60;;;11.55;64.43;99363.97;12253199;19;20002;-85
2023/12/11 17:41:53;;;;;;;;;;;13.00;65.70;;;11.53;64.42;99361.50;12250582;19;19911;-85
2023/12/11 17:45:55;;;;;;;;;;;13.00;65.80;;;11.70;64.60;99386.28;12254772;19;19919;-85
2023/12/11 17:49:57;;;;;;;;;;;13.00;65.80;;;11.73;64.56;99404.31;12250050;19;20715;-85
2023/12/11 17:53:58;;;;;;;;;;;13.00;65.70;;;11.54;64.59;99385.84;12244006;19;19922;-85
2023/12/11 17:58:00;;;;;;;;;;;13.00;65.80;;;11.50;64.62;99386.09;12254587;19;20379;-85
2023/12/11 18:02:01;;;;;;;;;;;13.00;65.70;;;11.77;64.48;99433.66;12250502;19;19929;-85
2023/12/11 18:06:03;;;;;;;;;;;13.00;65.70;;;11.67;64.39;99429.19;12253584;19;19911;-85
2023/12/11 18:10:05;;;;;;;;;;;13.00;65.60;;;11.76;64.62;99447.72;12248365;19;19938;-85
2023/12/11 18:14:06;;;;;;;;;;;13.00;65.60;;;11.66;64.65;99443.19;12252315;19;19922;-85
2023/12/11 18:18:07;;;;;;;;;;;13.00;65.60;;;11.55;64.51;99434.56;12252926;19;19978;-85
2023/12/11 18:22:09;;;;;;;;;;;13.00;65.60;;;11.66;64.43;99466.72;12247052;19;19942;-86
2023/12/11 18:26:11;;;;;;;;;;;13.00;65.70;;;11.67;64.45;99468.41;12249361;19;19915;-86